createdAt,value
2023-05-30T00:01:43.253Z,1.4
2023-05-30T00:06:43.871Z,1.6
2023-05-30T00:08:24.377Z,1.6
2023-05-30T00:13:24.973Z,1.5
2023-05-30T00:18:25.634Z,1.6
2023-05-30T00:23:26.186Z,1.6
2023-05-30T00:28:26.874Z,1.5
2023-05-30T00:33:27.502Z,1.5
2023-05-30T00:38:27.981Z,1.5
2023-05-30T00:43:28.696Z,1.5
2023-05-30T00:48:29.268Z,1.5
2023-05-30T00:53:29.961Z,1.4
2023-05-30T00:58:30.435Z,1.7
2023-05-30T01:03:31.217Z,1.4
2023-05-30T01:08:31.733Z,1.6
2023-05-30T01:13:32.342Z,1.6
2023-05-30T01:18:32.980Z,1.9
2023-05-30T01:23:33.579Z,1.7
2023-05-30T01:28:34.170Z,1.8
2023-05-30T01:33:34.932Z,1.5
2023-05-30T01:38:35.503Z,1.5
2023-05-30T01:43:36.044Z,1.8
2023-05-30T01:48:36.856Z,1.5
2023-05-30T01:53:37.306Z,1.8
2023-05-30T01:58:37.830Z,1.9
2023-05-30T02:03:38.570Z,1.7
2023-05-30T02:08:39.006Z,2.1
2023-05-30T02:13:39.716Z,1.8
2023-05-30T02:18:40.395Z,1.8
2023-05-30T02:23:40.841Z,1.9
2023-05-30T02:28:41.508Z,1.8
2023-05-30T02:33:42.138Z,1.5
2023-05-30T02:38:42.755Z,1.8
2023-05-30T02:43:43.406Z,1.8
2023-05-30T02:48:43.982Z,1.6
2023-05-30T02:53:44.564Z,1.7
2023-05-30T02:58:45.307Z,1.4
2023-05-30T03:03:45.964Z,1.8
2023-05-30T03:08:46.648Z,1.6
2023-05-30T03:13:47.113Z,1.5
2023-05-30T03:18:47.878Z,1.6
2023-05-30T03:23:48.474Z,1.2
2023-05-30T03:28:49.074Z,1.6
2023-05-30T03:33:49.874Z,1.4
2023-05-30T03:38:50.410Z,1.7
2023-05-30T03:43:51.032Z,1.6
2023-05-30T03:48:51.882Z,1.5
2023-05-30T03:53:52.435Z,1.4
2023-05-30T03:58:52.984Z,1.6
2023-05-30T04:03:53.827Z,1.6
2023-05-30T04:08:54.315Z,1.6
2023-05-30T04:13:54.933Z,1.6
2023-05-30T04:18:55.762Z,1.6
2023-05-30T04:23:56.302Z,1.5
2023-05-30T04:28:56.850Z,1.6
2023-05-30T04:33:57.781Z,1.5
2023-05-30T04:38:58.118Z,1.6
2023-05-30T04:43:59.148Z,1.6
2023-05-30T04:48:59.567Z,1.6
2023-05-30T04:54:00.169Z,1.5
2023-05-30T04:59:00.891Z,1.5
2023-05-30T05:04:01.702Z,1.6
2023-05-30T05:09:02.136Z,1.6
2023-05-30T05:14:02.844Z,1.8
2023-05-30T05:19:03.613Z,1.7
2023-05-30T05:24:04.109Z,1.6
2023-05-30T05:29:04.868Z,1.5
2023-05-30T05:34:05.677Z,1.6
2023-05-30T05:39:06.629Z,2.0
2023-05-30T05:44:06.866Z,2.0
2023-05-30T05:49:07.670Z,1.6
2023-05-30T05:54:08.248Z,1.8
2023-05-30T05:59:08.850Z,1.7
2023-05-30T06:04:09.747Z,1.8
2023-05-30T06:09:10.349Z,1.8
2023-05-30T06:14:10.890Z,1.8
2023-05-30T06:19:11.674Z,1.9
2023-05-30T06:24:12.306Z,1.9
2023-05-30T06:29:12.997Z,1.7
2023-05-30T06:34:14.011Z,2.0
2023-05-30T06:39:14.452Z,1.8
2023-05-30T06:44:15.053Z,1.9
2023-05-30T06:49:15.813Z,2.2
2023-05-30T06:54:16.441Z,2.1
2023-05-30T06:59:17.055Z,2.3
2023-05-30T07:04:17.870Z,1.9
2023-05-30T07:09:18.506Z,1.9
2023-05-30T07:14:19.144Z,2.4
2023-05-30T07:19:19.953Z,2.4
2023-05-30T07:24:20.564Z,2.0
2023-05-30T07:29:21.204Z,1.9
2023-05-30T07:34:21.834Z,2.0
2023-05-30T07:39:22.612Z,1.8
2023-05-30T07:44:23.192Z,2.1
2023-05-30T07:49:23.966Z,2.1
2023-05-30T07:54:24.665Z,1.9
2023-05-30T07:59:25.420Z,1.6
2023-05-30T08:04:26.071Z,2.1
2023-05-30T08:09:26.750Z,1.4
2023-05-30T08:14:27.486Z,1.6
2023-05-30T08:19:28.170Z,1.6
2023-05-30T08:24:28.934Z,1.4
2023-05-30T08:29:29.577Z,1.3
2023-05-30T08:34:30.349Z,1.5
2023-05-30T08:39:30.870Z,1.2
2023-05-30T08:44:31.659Z,1.2
2023-05-30T08:49:32.417Z,1.1
2023-05-30T08:54:32.948Z,1.5
2023-05-30T08:59:33.785Z,1.4
2023-05-30T09:04:34.496Z,1.3
2023-05-30T09:09:35.100Z,1.2
2023-05-30T09:14:35.895Z,1.7
2023-05-30T09:19:36.805Z,1.2
2023-05-30T09:24:37.326Z,1.5
2023-05-30T09:29:37.926Z,1.4
2023-05-30T09:34:38.826Z,1.5
2023-05-30T09:39:39.453Z,1.1
2023-05-30T09:44:40.162Z,1.3
2023-05-30T09:49:40.986Z,1.4
2023-05-30T09:54:41.655Z,1.3
2023-05-30T09:59:42.389Z,1.4
2023-05-30T10:04:43.064Z,1.2
2023-05-30T10:09:43.823Z,1.6
2023-05-30T10:14:44.584Z,1.2
2023-05-30T10:19:45.399Z,1.2
2023-05-30T10:24:46.014Z,1.4
2023-05-30T10:29:46.924Z,1.4
2023-05-30T10:34:47.665Z,1.5
2023-05-30T10:39:48.210Z,1.8
2023-05-30T10:44:48.992Z,1.5
2023-05-30T10:49:49.713Z,1.8
2023-05-30T10:54:50.398Z,1.9
2023-05-30T10:59:51.013Z,2.1
2023-05-30T11:04:51.864Z,2.0
2023-05-30T11:09:52.485Z,1.8
2023-05-30T11:14:53.214Z,1.9
2023-05-30T11:19:54.000Z,1.7
2023-05-30T11:24:54.644Z,2.4
2023-05-30T11:29:55.396Z,1.7
2023-05-30T11:34:59.993Z,1.9
2023-05-30T11:39:56.878Z,2.1
2023-05-30T11:44:57.543Z,2.2
2023-05-30T11:49:58.284Z,2.0
2023-05-30T11:54:58.906Z,2.3
2023-05-30T11:59:59.753Z,1.9
2023-05-30T12:05:00.583Z,2.5
2023-05-30T12:10:00.968Z,2.3
2023-05-30T12:15:01.768Z,2.5
2023-05-30T12:20:02.553Z,2.7
2023-05-30T12:25:03.187Z,2.7
2023-05-30T12:30:03.962Z,2.0
2023-05-30T12:35:05.089Z,1.9
2023-05-30T12:40:05.494Z,1.8
2023-05-30T12:45:06.211Z,1.9
2023-05-30T12:50:07.022Z,1.8
2023-05-30T12:55:07.740Z,2.2
2023-05-30T13:00:08.586Z,1.9
2023-05-30T13:05:09.388Z,2.0
2023-05-30T13:10:10.035Z,1.8
2023-05-30T13:15:10.845Z,1.6
2023-05-30T13:20:11.631Z,1.9
2023-05-30T13:25:12.231Z,1.9
2023-05-30T13:30:12.937Z,1.9
2023-05-30T13:35:14.081Z,1.7
2023-05-30T13:40:14.545Z,1.8
2023-05-30T13:45:15.235Z,1.4
2023-05-30T13:50:16.224Z,2.0
2023-05-30T13:55:16.824Z,1.8
2023-05-30T14:00:17.573Z,2.0
2023-05-30T14:05:19.047Z,2.4
2023-05-30T14:10:19.093Z,2.3
2023-05-30T14:15:19.885Z,1.9
2023-05-30T14:20:20.732Z,2.4
2023-05-30T14:25:21.367Z,2.2
2023-05-30T14:30:22.074Z,2.1
2023-05-30T14:35:22.971Z,2.3
2023-05-30T14:40:23.619Z,2.0
2023-05-30T14:45:24.407Z,2.0
2023-05-30T14:50:25.151Z,2.2
2023-05-30T14:55:25.910Z,2.1
2023-05-30T15:00:26.627Z,2.2
2023-05-30T15:05:27.496Z,1.9
2023-05-30T15:10:28.282Z,1.8
2023-05-30T15:15:28.955Z,2.2
2023-05-30T15:20:29.852Z,2.0
2023-05-30T15:25:30.444Z,2.3
2023-05-30T15:30:31.043Z,2.3
2023-05-30T15:35:31.971Z,2.2
2023-05-30T15:40:32.625Z,2.3
2023-05-30T15:45:33.393Z,2.2
2023-05-30T15:50:34.259Z,2.1
2023-05-30T15:55:35.009Z,2.3
2023-05-30T16:00:35.761Z,2.4
2023-05-30T16:05:36.642Z,2.0
2023-05-30T16:10:37.354Z,2.4
2023-05-30T16:15:38.085Z,2.3
2023-05-30T16:20:39.062Z,2.1
2023-05-30T16:25:39.763Z,1.9
2023-05-30T16:30:40.629Z,2.2
2023-05-30T16:35:41.314Z,2.0
2023-05-30T16:40:41.963Z,2.0
2023-05-30T16:45:42.826Z,2.0
2023-05-30T16:50:43.663Z,2.0
2023-05-30T16:55:44.354Z,1.9
2023-05-30T17:00:45.046Z,2.3
2023-05-30T17:05:45.980Z,2.1
2023-05-30T17:10:46.644Z,2.2
2023-05-30T17:15:47.427Z,2.2
2023-05-30T17:20:48.354Z,2.2
2023-05-30T17:26:00.640Z,2.2
2023-05-30T17:30:49.754Z,2.2
2023-05-30T17:35:50.631Z,2.1
2023-05-30T17:40:51.224Z,1.9
2023-05-30T17:45:52.047Z,2.0
2023-05-30T17:50:52.851Z,2.1
2023-05-30T17:55:53.618Z,2.5
2023-05-30T18:00:54.406Z,3.0
2023-05-30T18:05:55.305Z,2.4
2023-05-30T18:10:55.975Z,2.3
2023-05-30T18:15:56.832Z,2.0
2023-05-30T18:20:57.712Z,2.2
2023-05-30T18:25:58.326Z,2.3
2023-05-30T18:30:59.189Z,2.2
2023-05-30T18:36:12.140Z,2.0
2023-05-30T18:41:00.883Z,2.1
2023-05-30T18:46:01.529Z,2.6
2023-05-30T18:51:02.095Z,1.9
2023-05-30T18:56:02.844Z,2.6
2023-05-30T19:01:03.729Z,2.8
2023-05-30T19:06:04.479Z,2.2
2023-05-30T19:11:05.132Z,2.2
2023-05-30T19:16:06.065Z,2.4
2023-05-30T19:21:06.703Z,2.6
2023-05-30T19:26:07.468Z,3.0
2023-05-30T19:31:08.158Z,2.3
2023-05-30T19:36:09.068Z,1.9
2023-05-30T19:41:09.698Z,2.4
2023-05-30T19:46:10.423Z,2.1
2023-05-30T19:51:11.253Z,2.3
2023-05-30T19:56:14.409Z,2.0
2023-05-30T20:01:12.719Z,2.0
2023-05-30T20:06:14.459Z,2.4
2023-05-30T20:11:14.124Z,2.3
2023-05-30T20:16:14.871Z,2.2
2023-05-30T20:21:15.682Z,2.3
2023-05-30T20:26:16.301Z,2.1
2023-05-30T20:31:17.065Z,2.2
2023-05-30T20:36:17.969Z,2.1
2023-05-30T20:41:18.445Z,2.2
2023-05-30T20:46:19.215Z,2.6
2023-05-30T20:51:20.026Z,2.2
2023-05-30T20:56:20.730Z,2.1
2023-05-30T21:01:21.474Z,2.2
2023-05-30T21:06:22.122Z,2.2
2023-05-30T21:11:22.806Z,2.3
2023-05-30T21:16:23.493Z,2.2
2023-05-30T21:21:24.225Z,2.6
2023-05-30T21:26:24.849Z,2.1
2023-05-30T21:31:25.553Z,2.2
2023-05-30T21:36:26.307Z,2.0
2023-05-30T21:41:26.904Z,2.1
2023-05-30T21:46:27.572Z,2.0
2023-05-30T21:51:28.255Z,2.4
2023-05-30T21:56:28.887Z,2.6
2023-05-30T22:01:29.684Z,2.1
2023-05-30T22:06:30.054Z,2.3
2023-05-30T22:11:30.758Z,2.4
2023-05-30T22:16:31.508Z,2.3
2023-05-30T22:21:32.224Z,1.9
2023-05-30T22:26:32.792Z,1.8
2023-05-30T22:31:33.534Z,2.3
2023-05-30T22:36:34.331Z,2.1
2023-05-30T22:41:34.665Z,2.1
2023-05-30T22:46:35.430Z,1.9
2023-05-30T22:51:36.020Z,2.1
2023-05-30T22:56:36.640Z,2.0
2023-05-30T23:01:37.330Z,2.1
2023-05-30T23:06:37.915Z,2.3
2023-05-30T23:11:38.591Z,1.8
2023-05-30T23:16:39.187Z,1.9
2023-05-30T23:21:39.881Z,2.4
2023-05-30T23:26:40.461Z,2.4
2023-05-30T23:31:41.166Z,1.9
2023-05-30T23:36:41.842Z,2.0
2023-05-30T23:41:42.366Z,2.3
2023-05-30T23:46:42.974Z,2.2
2023-05-30T23:51:43.665Z,2.3
2023-05-30T23:56:44.131Z,2.2
